< < Back
Terminal Aerodrome Forecast


Current Version              Previous Versions:   1  2  3  4  5  6  7  8  9  

Terminal Aerodrome Forecast

965
FTUS42 KGSP 311100
TAFCLT
TAF
KCLT 311124Z 3112/0112 07003KT P6SM SCT060 BKN100
     FM311500 08007KT P6SM BKN060
     FM312200 06006KT P6SM OVC050 PROB30 3122/0102 4SM TSRA OVC040CB
     FM010900 05005KT 5SM -SHRA BR OVC020=



Latest METAR

979
SAUS70 KWBC 311700 RRA
MTRCLT
METAR KCLT 311652Z 36005KT 10SM FEW075 BKN100 BKN120 26/19 A3014 RMK AO2
SLP197 T02560194


USA.gov is the U.S. government's official web portal to all federal, state and local government web resources and services.